Aérodrome :
LOGIN :

S'inscrire | Disclaimer

   EN    FR    IT 

 










Légende :    VFR   VFR Marginal   IFR   IFR Intensif   IFR Très Intensif
Visi : 
Plafond : 
>= 8 km
>= 3000ft
5 à 8 km
1000 à 3000 ft
1500m à 5 km
500 à 1000 ft
800 à 1500m
200 à 500 ft
< 800m
< 200 ft
Symboles :   Orages  Brouillard  Fortes neiges  Fortes précipitations  Vent > 20 kt
SIGMETs :   Divers  Orages  Givrage  Turbulence  Onde Orograph.  Cendres Volcan.







- Altitude de l'aérodrome : 352 ft
- Code IATA : KSD


ESOK - Karlstad

DERNIER METAR :
  • 101650Z 34015KT 9999 -RASN FEW008 BKN012 01/01 Q1000

METARs EXPIRÉS :
  • 101620Z 34016KT 9999 -RA FEW010 SCT015 BKN020 01/01 Q1000
  • 101550Z 34015KT 9999 -RA SCT010 BKN020 01/01 Q0999
  • 101520Z 34014KT 9999 -RA BKN010 OVC015 02/01 Q0999
  • 101450Z 33010KT 8000 -RASN SCT007 BKN010 01/01 Q0998
  • 101420Z 33010KT 7000 -SNRA FEW006 BKN008 01/01 Q0998

TAF TAF ESOK
Valide du 10 à 15h jusqu'au 10 à 22h UTC


101430Z 1015/1022 34010KT 9999 BKN012
PROB40 1015/1018 2500 -SN VV015
BECMG 1018/1020 FEW015
Pas de NOTAMs connus pour ce terrain.



MET'MAP, la Météo Aéronautique d'un coup d'oeil ! - Copyright ORBIFLY Décembre 2007 - Disclaimer

ORBIFLY MET'MAP TEAM :

Programmation & Développement : Alexandra Zaïnal
Conception & Développement : Baudouin d'Aumeries
Co-Programmation & Développement : Marc-Olivier Méhu
Soutien technique & logistique : Manuel Goepfert

Contact : metmap@orbifly.com




SOURCES & CREDITS :

   NOAA